Time;durP1;ratioP1;P1;durP2;ratioP2;P2;SDS_P1;SDS_P2;PMS_P1;PMS_P2;Temp;Humidity;BMP_temperature;BMP_pressure;BME280_temperature;BME280_humidity;BME280_pressure;Samples;Min_cycle;Max_cycle;Signal;HPM_P1;HPM_P2
2022/09/03 00:02:31;;;;;;;3.38;0.95;;;16.80;99.90;;;;;;5003454;28;20054;-68
2022/09/03 00:05:22;;;;;;;1.30;0.93;;;16.80;99.90;;;;;;4985303;28;20054;-68
2022/09/03 00:08:20;;;;;;;3.38;1.30;;;16.80;99.90;;;;;;5012047;28;20099;-68
2022/09/03 00:11:31;;;;;;;2.63;1.10;;;16.80;99.90;;;;;;5021592;28;20357;-68
2022/09/03 00:14:03;;;;;;;2.88;0.90;;;16.80;99.90;;;;;;4996900;28;20072;-68
2022/09/03 00:17:02;;;;;;;5.47;1.35;;;16.70;99.90;;;;;;5023081;28;20058;-69
2022/09/03 00:19:35;;;;;;;5.78;1.10;;;16.70;99.90;;;;;;5008997;28;20129;-69
2022/09/03 00:22:26;;;;;;;5.10;1.00;;;16.70;99.90;;;;;;5026310;28;20433;-68
2022/09/03 00:24:52;;;;;;;3.28;1.33;;;16.60;99.90;;;;;;5026478;28;20046;-66
2022/09/03 00:27:24;;;;;;;2.45;1.13;;;16.60;99.90;;;;;;5025918;28;20108;-68
2022/09/03 00:29:57;;;;;;;1.92;1.00;;;16.50;99.90;;;;;;5008774;28;20626;-68
2022/09/03 00:32:52;;;;;;;2.40;1.02;;;16.60;99.90;;;;;;5026532;28;20385;-68
2022/09/03 00:35:46;;;;;;;5.25;1.13;;;16.60;99.90;;;;;;5026481;28;20381;-68
2022/09/03 00:38:12;;;;;;;3.67;0.95;;;16.60;99.90;;;;;;5025635;28;20057;-68
2022/09/03 00:40:56;;;;;;;4.03;1.08;;;16.60;99.90;;;;;;5025622;28;20591;-68
2022/09/03 00:43:27;;;;;;;3.08;0.95;;;16.60;99.90;;;;;;5026741;28;20045;-68
2022/09/03 00:46:23;;;;;;;2.17;1.15;;;16.60;99.90;;;;;;5025495;28;20049;-69
2022/09/03 00:49:07;;;;;;;5.00;1.60;;;16.50;99.90;;;;;;5026598;28;20054;-68
2022/09/03 00:51:37;;;;;;;5.18;1.20;;;16.50;99.90;;;;;;5024634;28;20051;-68
2022/09/03 00:54:08;;;;;;;2.92;1.25;;;16.40;99.90;;;;;;5025355;28;20093;-68
2022/09/03 00:56:50;;;;;;;5.53;1.20;;;16.40;99.90;;;;;;5024269;28;20046;-68
2022/09/03 00:59:57;;;;;;;2.55;1.00;;;16.50;99.90;;;;;;5026373;28;20099;-67
2022/09/03 01:02:32;;;;;;;1.65;1.10;;;16.40;99.90;;;;;;4986232;28;20057;-69
2022/09/03 01:05:07;;;;;;;3.15;1.10;;;16.30;99.90;;;;;;5022965;28;20049;-69
2022/09/03 01:07:37;;;;;;;;;;;16.20;99.90;;;;;;5015206;28;20049;-68
2022/09/03 01:10:15;;;;;;;3.45;1.15;;;16.20;99.90;;;;;;5006103;28;19932;-68
2022/09/03 01:13:13;;;;;;;1.95;1.00;;;16.20;99.90;;;;;;5004363;28;20365;-68
2022/09/03 01:15:57;;;;;;;1.92;1.00;;;16.10;99.90;;;;;;5002126;28;20157;-68
2022/09/03 01:19:04;;;;;;;2.33;1.30;;;16.10;99.90;;;;;;5006057;28;20123;-69
2022/09/03 01:21:33;;;;;;;4.82;1.20;;;16.00;99.90;;;;;;4947548;28;20130;-70
2022/09/03 01:24:11;;;;;;;3.42;1.10;;;16.00;99.90;;;;;;4992063;28;20101;-69
2022/09/03 01:27:04;;;;;;;2.90;1.10;;;15.90;99.90;;;;;;5004356;28;20432;-69
2022/09/03 01:30:03;;;;;;;4.13;1.35;;;15.90;99.90;;;;;;5020579;28;20061;-69
2022/09/03 01:32:41;;;;;;;4.60;1.00;;;15.80;99.90;;;;;;5005065;28;20053;-69
2022/09/03 01:35:23;;;;;;;5.03;1.10;;;15.80;99.90;;;;;;5020486;28;20038;-68
2022/09/03 01:38:11;;;;;;;3.17;1.30;;;15.80;99.90;;;;;;5019589;28;20053;-69
2022/09/03 01:40:52;;;;;;;2.60;1.17;;;15.80;99.90;;;;;;5004761;28;20172;-68
2022/09/03 01:43:18;;;;;;;2.28;1.20;;;15.70;99.90;;;;;;5005785;28;20050;-68
2022/09/03 01:45:52;;;;;;;4.35;1.27;;;15.60;99.90;;;;;;5005605;28;20052;-68
2022/09/03 01:48:30;;;;;;;3.53;1.20;;;15.60;99.90;;;;;;5005033;28;20137;-68
2022/09/03 01:51:22;;;;;;;2.03;1.00;;;15.60;99.90;;;;;;5003540;28;20125;-69
2022/09/03 01:54:09;;;;;;;2.05;1.15;;;15.50;99.90;;;;;;5004273;28;20060;-69
2022/09/03 01:57:06;;;;;;;2.60;1.15;;;15.40;99.90;;;;;;5003622;28;20042;-69
2022/09/03 01:59:50;;;;;;;4.05;1.40;;;15.50;99.90;;;;;;5003485;28;20049;-68
2022/09/03 02:02:21;;;;;;;3.88;1.50;;;15.40;99.90;;;;;;5020153;28;20049;-68
2022/09/03 02:05:13;;;;;;;1.92;1.13;;;15.30;99.90;;;;;;5004851;28;20409;-68
2022/09/03 02:07:42;;;;;;;2.60;1.27;;;15.40;99.90;;;;;;5013742;28;20045;-69
2022/09/03 02:10:12;;;;;;;3.50;1.33;;;15.30;99.90;;;;;;5023569;28;20407;-68
2022/09/03 02:12:41;;;;;;;2.97;1.13;;;15.20;99.90;;;;;;5024033;28;20052;-68
2022/09/03 02:15:16;;;;;;;3.17;1.20;;;15.20;99.90;;;;;;5024517;28;20125;-69
2022/09/03 02:17:44;;;;;;;;;;;15.30;99.90;;;;;;5024881;28;20055;-69
2022/09/03 02:20:15;;;;;;;3.65;1.20;;;15.20;99.90;;;;;;5023572;28;19986;-68
2022/09/03 02:22:42;;;;;;;4.68;1.40;;;15.20;99.90;;;;;;5023764;28;20444;-69
2022/09/03 02:25:09;;;;;;;2.80;1.33;;;15.20;99.90;;;;;;5023552;28;20046;-69
2022/09/03 02:27:37;;;;;;;3.53;1.33;;;15.20;99.90;;;;;;5023954;28;20050;-68
2022/09/03 02:30:04;;;;;;;3.15;1.40;;;15.20;99.90;;;;;;5022936;28;20120;-69
2022/09/03 02:32:30;;;;;;;3.50;1.40;;;15.10;99.90;;;;;;5024146;28;20053;-69
2022/09/03 02:34:57;;;;;;;3.22;1.30;;;15.10;99.90;;;;;;5022449;28;20533;-68
2022/09/03 02:37:23;;;;;;;3.10;1.20;;;15.10;99.90;;;;;;5022573;28;20049;-69
2022/09/03 02:39:50;;;;;;;2.25;1.30;;;15.10;99.90;;;;;;5023553;28;20056;-69
2022/09/03 02:42:17;;;;;;;3.03;1.13;;;15.00;99.90;;;;;;5023365;28;20456;-69
2022/09/03 02:45:12;;;;;;;2.63;1.42;;;15.00;99.90;;;;;;5023738;28;20045;-69
2022/09/03 02:47:42;;;;;;;1.85;1.20;;;15.00;99.90;;;;;;5018098;28;20103;-68
2022/09/03 02:50:08;;;;;;;2.17;1.17;;;15.00;99.90;;;;;;5023934;28;20042;-68
2022/09/03 02:52:33;;;;;;;3.47;1.35;;;14.90;99.90;;;;;;5021841;28;20053;-68
2022/09/03 02:54:59;;;;;;;3.05;1.30;;;14.90;99.90;;;;;;5023371;28;20040;-69
2022/09/03 02:57:25;;;;;;;4.68;1.25;;;14.90;99.90;;;;;;5022901;28;20408;-65
2022/09/03 02:59:50;;;;;;;7.28;1.50;;;14.90;99.90;;;;;;5024050;28;20049;-69
2022/09/03 03:02:16;;;;;;;2.47;1.48;;;14.70;99.90;;;;;;5022234;28;20049;-68
2022/09/03 03:04:41;;;;;;;4.18;1.55;;;14.80;99.90;;;;;;5023487;28;20064;-69
2022/09/03 03:07:07;;;;;;;2.25;1.35;;;14.90;99.90;;;;;;5015561;28;20048;-69
2022/09/03 03:09:33;;;;;;;3.05;1.35;;;14.70;99.90;;;;;;5004111;28;20493;-69
2022/09/03 03:11:58;;;;;;;2.58;1.50;;;14.80;99.90;;;;;;5003365;28;20126;-69
2022/09/03 03:14:24;;;;;;;2.50;1.60;;;14.70;99.90;;;;;;5002829;28;20045;-68
2022/09/03 03:16:50;;;;;;;4.55;1.40;;;14.80;99.90;;;;;;5004293;28;20050;-68
2022/09/03 03:19:16;;;;;;;2.88;1.50;;;14.80;99.90;;;;;;5003675;28;20034;-69
2022/09/03 03:21:42;;;;;;;3.42;1.55;;;14.80;99.90;;;;;;5002860;28;20046;-71
2022/09/03 03:24:07;;;;;;;3.83;1.30;;;14.90;99.90;;;;;;5003822;28;20034;-69
2022/09/03 03:26:33;;;;;;;4.25;1.70;;;14.80;99.90;;;;;;5002319;28;20056;-70
2022/09/03 03:29:03;;;;;;;2.92;1.58;;;14.80;99.90;;;;;;5003586;28;20467;-69
2022/09/03 03:31:30;;;;;;;3.17;1.58;;;14.70;99.90;;;;;;5003757;28;20046;-69
2022/09/03 03:33:58;;;;;;;3.13;1.58;;;14.80;99.90;;;;;;5003667;28;20088;-69
2022/09/03 03:36:27;;;;;;;3.28;1.60;;;14.80;99.90;;;;;;5017961;28;20123;-69
2022/09/03 03:38:54;;;;;;;2.92;1.60;;;14.80;99.90;;;;;;5003529;28;20061;-69
2022/09/03 03:41:22;;;;;;;2.85;1.70;;;14.80;99.90;;;;;;5004773;28;20050;-69
2022/09/03 03:43:56;;;;;;;2.38;1.65;;;14.70;99.90;;;;;;5018339;28;20045;-69
2022/09/03 03:46:23;;;;;;;2.50;1.60;;;14.70;99.90;;;;;;5004243;28;20466;-70
2022/09/03 03:48:50;;;;;;;2.38;1.50;;;14.60;99.90;;;;;;5003755;28;20121;-70
2022/09/03 03:51:16;;;;;;;2.40;1.50;;;14.50;99.90;;;;;;5003443;28;20054;-69
2022/09/03 03:53:43;;;;;;;2.67;1.50;;;14.50;99.90;;;;;;5005084;28;20107;-66
2022/09/03 03:56:11;;;;;;;3.83;1.70;;;14.40;99.90;;;;;;5008235;28;20061;-69
2022/09/03 03:58:41;;;;;;;3.75;1.50;;;14.40;99.90;;;;;;5007069;28;20061;-69
2022/09/03 04:01:28;;;;;;;3.60;1.65;;;14.40;99.90;;;;;;5007649;28;20489;-69
2022/09/03 04:03:58;;;;;;;3.83;1.70;;;14.50;99.90;;;;;;5005439;28;20050;-69
2022/09/03 04:06:24;;;;;;;4.68;1.83;;;14.40;99.90;;;;;;5011931;28;20205;-69
2022/09/03 04:08:50;;;;;;;2.38;1.70;;;14.40;99.90;;;;;;5011828;28;20076;-68
2022/09/03 04:11:21;;;;;;;3.20;1.70;;;14.20;99.90;;;;;;5005384;28;20088;-68
2022/09/03 04:13:48;;;;;;;2.47;1.70;;;14.30;99.90;;;;;;5006922;28;20038;-68
2022/09/03 04:16:27;;;;;;;2.85;1.70;;;14.30;99.90;;;;;;5007005;28;20056;-68
2022/09/03 04:18:54;;;;;;;2.13;1.50;;;14.20;99.90;;;;;;5022366;28;20400;-70
2022/09/03 04:21:26;;;;;;;2.22;1.60;;;14.20;99.90;;;;;;5021229;28;20042;-69
2022/09/03 04:23:52;;;;;;;5.00;1.70;;;14.20;99.90;;;;;;5007257;28;20381;-69
2022/09/03 04:26:30;;;;;;;2.92;1.50;;;13.90;99.90;;;;;;5006898;28;20038;-69
2022/09/03 04:28:56;;;;;;;3.47;1.60;;;14.20;99.90;;;;;;5007405;28;20054;-68
2022/09/03 04:31:22;;;;;;;2.58;1.60;;;14.20;99.90;;;;;;5006911;28;20048;-69
2022/09/03 04:33:48;;;;;;;7.07;1.88;;;14.20;99.90;;;;;;5006998;28;20046;-69
2022/09/03 04:36:25;;;;;;;2.72;1.63;;;14.10;99.90;;;;;;5005994;28;20070;-69
2022/09/03 04:38:55;;;;;;;2.58;1.45;;;14.00;99.90;;;;;;5004754;28;20115;-69
2022/09/03 04:41:23;;;;;;;4.47;1.65;;;14.00;99.90;;;;;;5022027;28;20061;-69
2022/09/03 04:43:51;;;;;;;2.05;1.65;;;14.00;99.90;;;;;;5006805;28;20045;-69
2022/09/03 04:46:19;;;;;;;2.60;1.70;;;14.00;99.90;;;;;;5006241;28;20056;-68
2022/09/03 04:48:49;;;;;;;2.70;1.55;;;14.00;99.90;;;;;;5006518;28;20046;-69
2022/09/03 04:51:18;;;;;;;4.93;1.60;;;13.90;99.90;;;;;;5020519;28;20054;-66
2022/09/03 04:53:45;;;;;;;2.63;1.67;;;13.90;99.90;;;;;;5005982;28;20467;-68
2022/09/03 04:56:13;;;;;;;3.72;1.73;;;13.90;99.90;;;;;;5006733;28;20462;-69
2022/09/03 04:58:42;;;;;;;2.65;1.80;;;13.80;99.90;;;;;;5006075;28;20060;-69
2022/09/03 05:01:15;;;;;;;3.92;2.08;;;13.90;99.90;;;;;;5006154;28;20125;-69
2022/09/03 05:03:41;;;;;;;3.92;1.60;;;13.90;99.90;;;;;;5006361;28;20072;-69
2022/09/03 05:06:08;;;;;;;3.28;1.70;;;13.90;99.90;;;;;;5008818;28;20112;-69
2022/09/03 05:08:35;;;;;;;5.32;1.80;;;14.00;99.90;;;;;;5013084;28;20056;-69
2022/09/03 05:11:04;;;;;;;3.17;1.90;;;14.00;99.90;;;;;;5004776;28;20069;-69
2022/09/03 05:13:32;;;;;;;2.53;1.88;;;14.00;99.90;;;;;;5021481;28;20504;-69
2022/09/03 05:16:02;;;;;;;3.25;1.70;;;14.00;99.90;;;;;;5005501;28;20026;-68
2022/09/03 05:18:28;;;;;;;3.50;1.75;;;14.00;99.90;;;;;;5021206;28;20050;-69
2022/09/03 05:21:08;;;;;;;4.25;1.95;;;13.30;99.90;;;;;;5006141;28;20508;-69
2022/09/03 05:23:36;;;;;;;3.33;2.00;;;14.00;99.90;;;;;;5005611;28;20061;-65
2022/09/03 05:26:07;;;;;;;3.90;1.80;;;13.90;99.90;;;;;;5005957;28;20045;-70
2022/09/03 05:28:35;;;;;;;5.57;2.40;;;14.00;99.90;;;;;;5005214;28;20053;-69
2022/09/03 05:31:03;;;;;;;3.38;2.08;;;14.40;99.90;;;;;;5021024;28;20053;-69
2022/09/03 05:33:28;;;;;;;8.60;1.98;;;14.10;99.90;;;;;;5005431;28;20137;-69
2022/09/03 05:36:04;;;;;;;3.78;1.60;;;14.00;99.90;;;;;;5005568;28;20219;-69
2022/09/03 05:38:30;;;;;;;2.63;1.60;;;14.00;99.90;;;;;;5005406;28;20049;-69
2022/09/03 05:41:04;;;;;;;3.53;1.80;;;14.00;99.90;;;;;;5005628;28;20088;-68
2022/09/03 05:43:30;;;;;;;3.45;1.95;;;14.20;99.90;;;;;;5005183;28;20038;-68
2022/09/03 05:46:01;;;;;;;5.63;1.95;;;14.50;99.90;;;;;;5005450;28;20037;-68
2022/09/03 05:48:29;;;;;;;3.00;1.63;;;14.80;99.90;;;;;;5004549;28;20068;-68
2022/09/03 05:51:03;;;;;;;2.60;1.80;;;15.10;99.90;;;;;;5005003;28;20046;-68
2022/09/03 05:53:31;;;;;;;3.47;2.00;;;15.10;99.90;;;;;;5005150;28;20508;-67
2022/09/03 05:55:59;;;;;;;3.13;1.80;;;15.00;99.90;;;;;;5020378;28;20096;-68
2022/09/03 05:58:29;;;;;;;3.47;1.83;;;15.00;99.90;;;;;;5020399;28;20566;-68
2022/09/03 06:00:54;;;;;;;3.85;1.90;;;14.90;99.90;;;;;;5003948;28;20358;-68
2022/09/03 06:03:20;;;;;;;5.30;1.83;;;14.90;99.90;;;;;;5003689;28;20535;-68
2022/09/03 06:05:50;;;;;;;4.47;1.77;;;15.00;99.90;;;;;;5005164;28;20559;-68
2022/09/03 06:08:16;;;;;;;3.63;1.70;;;15.10;99.90;;;;;;5012970;28;20046;-68
2022/09/03 06:10:42;;;;;;;6.05;1.83;;;15.20;99.90;;;;;;5004572;28;20526;-68
2022/09/03 06:13:07;;;;;;;4.00;1.63;;;15.30;99.90;;;;;;5004496;28;20054;-67
2022/09/03 06:15:33;;;;;;;3.55;1.90;;;15.60;99.90;;;;;;5019686;28;20042;-67
2022/09/03 06:17:58;;;;;;;3.85;1.80;;;15.90;99.90;;;;;;5004760;28;20041;-62
2022/09/03 06:20:27;;;;;;;3.50;1.80;;;16.10;99.90;;;;;;5005326;28;20481;-67
2022/09/03 06:22:53;;;;;;;5.68;1.65;;;16.40;99.90;;;;;;5018812;28;20148;-67
2022/09/03 06:25:20;;;;;;;3.95;1.70;;;16.60;99.90;;;;;;5004732;28;20300;-52
2022/09/03 06:27:46;;;;;;;3.35;1.80;;;17.00;99.90;;;;;;5004429;28;20152;-52
2022/09/03 06:30:12;;;;;;;3.53;1.65;;;17.50;99.90;;;;;;5004509;28;20053;-54
2022/09/03 06:32:51;;;;;;;2.80;1.70;;;17.70;99.90;;;;;;5004574;28;20052;-53
2022/09/03 06:35:17;;;;;;;4.68;1.50;;;18.00;99.90;;;;;;5004403;28;20042;-60
2022/09/03 06:37:43;;;;;;;4.60;1.80;;;18.20;99.90;;;;;;5003885;28;20049;-50
2022/09/03 06:40:12;;;;;;;2.75;1.77;;;18.00;99.90;;;;;;5004374;28;20045;-62
2022/09/03 06:42:41;;;;;;;3.33;1.70;;;17.90;99.90;;;;;;5004330;28;20058;-62
2022/09/03 06:45:10;;;;;;;3.35;1.52;;;17.80;99.90;;;;;;5020808;28;20037;-62
2022/09/03 06:47:36;;;;;;;2.65;1.60;;;17.90;99.90;;;;;;5037420;28;20047;-64
2022/09/03 06:50:02;;;;;;;2.88;1.70;;;18.10;99.90;;;;;;5043935;28;20037;-65
2022/09/03 06:52:28;;;;;;;2.55;1.70;;;18.20;99.90;;;;;;5041556;28;20075;-64
2022/09/03 06:54:54;;;;;;;4.28;1.42;;;18.40;99.90;;;;;;5043808;28;20107;-64
2022/09/03 06:57:20;;;;;;;2.60;1.85;;;18.30;99.90;;;;;;5043996;28;20096;-64
2022/09/03 06:59:45;;;;;;;3.33;1.58;;;18.30;99.90;;;;;;5042001;28;20028;-64
2022/09/03 07:02:11;;;;;;;4.05;1.30;;;17.90;99.90;;;;;;5044136;28;20514;-63
2022/09/03 07:04:37;;;;;;;3.05;1.60;;;18.30;99.90;;;;;;5043601;28;20086;-64
2022/09/03 07:07:02;;;;;;;2.55;1.38;;;18.30;99.90;;;;;;5025893;28;20124;-65
2022/09/03 07:09:28;;;;;;;2.92;1.45;;;17.80;99.90;;;;;;5024071;28;20120;-65
2022/09/03 07:11:54;;;;;;;2.78;1.63;;;18.30;99.90;;;;;;5022017;28;20110;-64
2022/09/03 07:14:21;;;;;;;3.95;1.40;;;18.70;99.90;;;;;;5022694;28;20049;-64
2022/09/03 07:16:48;;;;;;;10.00;2.05;;;18.80;99.90;;;;;;5021371;28;20044;-64
2022/09/03 07:19:14;;;;;;;3.60;1.58;;;18.30;99.90;;;;;;5013123;28;20085;-65
2022/09/03 07:21:41;;;;;;;5.25;1.50;;;18.90;99.90;;;;;;5021570;28;20136;-65
2022/09/03 07:24:08;;;;;;;6.57;1.60;;;18.80;99.90;;;;;;5037401;28;20112;-63
2022/09/03 07:26:43;;;;;;;4.28;1.70;;;19.10;99.90;;;;;;5020908;28;20053;-65
2022/09/03 07:29:10;;;;;;;8.45;1.80;;;19.20;99.90;;;;;;5025454;28;20041;-62
2022/09/03 07:31:38;;;;;;;4.32;1.42;;;19.50;99.90;;;;;;5026450;28;20463;-63
2022/09/03 07:34:09;;;;;;;4.65;1.63;;;19.30;99.90;;;;;;5025906;28;20437;-62
2022/09/03 07:36:42;;;;;;;3.15;1.33;;;19.40;99.90;;;;;;5025117;28;20681;-65
2022/09/03 07:39:10;;;;;;;3.67;1.30;;;19.60;99.90;;;;;;5024461;28;20049;-63
2022/09/03 07:41:36;;;;;;;2.03;1.35;;;19.70;99.90;;;;;;5026122;28;20061;-63
2022/09/03 07:44:04;;;;;;;3.85;1.33;;;19.90;99.90;;;;;;5027289;28;20053;-63
2022/09/03 07:46:32;;;;;;;4.22;1.48;;;20.00;99.90;;;;;;5035653;28;20052;-63
2022/09/03 07:49:02;;;;;;;8.05;1.30;;;20.00;99.90;;;;;;5045855;28;20125;-64
2022/09/03 07:51:31;;;;;;;3.83;1.50;;;20.10;99.90;;;;;;5045695;28;20045;-64
2022/09/03 07:53:59;;;;;;;4.47;1.65;;;20.40;99.90;;;;;;5046569;28;20060;-64
2022/09/03 07:56:26;;;;;;;4.40;1.20;;;19.80;99.90;;;;;;5046439;28;20041;-64
2022/09/03 07:58:54;;;;;;;3.40;1.27;;;19.90;99.90;;;;;;5046291;28;20099;-63
2022/09/03 08:01:21;;;;;;;2.33;1.20;;;20.00;99.90;;;;;;5046071;28;20091;-63
2022/09/03 08:03:49;;;;;;;3.58;1.20;;;20.50;99.90;;;;;;5046244;28;20068;-64
2022/09/03 08:06:17;;;;;;;2.20;1.10;;;20.50;99.90;;;;;;5026327;28;20104;-63
2022/09/03 08:08:45;;;;;;;5.25;1.50;;;20.70;99.90;;;;;;5011753;28;20050;-63
2022/09/03 08:11:17;;;;;;;6.47;1.90;;;20.80;99.90;;;;;;5021875;28;20056;-64
2022/09/03 08:14:07;;;;;;;4.53;1.10;;;20.70;99.90;;;;;;5011627;28;20053;-65
2022/09/03 08:16:38;;;;;;;5.25;1.33;;;20.60;99.90;;;;;;5025662;28;20053;-64
2022/09/03 08:19:04;;;;;;;3.33;1.58;;;20.60;99.90;;;;;;5026487;28;20088;-64
2022/09/03 08:21:30;;;;;;;3.75;1.60;;;20.50;99.90;;;;;;5025624;28;20045;-64
2022/09/03 08:24:02;;;;;;;2.42;1.50;;;20.20;99.90;;;;;;5026301;28;20087;-63
2022/09/03 08:26:30;;;;;;;3.35;1.40;;;19.80;99.90;;;;;;5008800;28;20369;-63
2022/09/03 08:28:56;;;;;;;4.03;1.33;;;19.50;99.90;;;;;;5024166;28;20045;-63
2022/09/03 08:31:23;;;;;;;5.05;1.50;;;19.40;99.90;;;;;;5025934;28;20079;-61
2022/09/03 08:33:51;;;;;;;3.20;1.55;;;19.40;99.90;;;;;;5026290;28;20053;-63
2022/09/03 08:36:37;;;;;;;3.15;1.30;;;19.50;99.90;;;;;;5025484;28;20041;-61
2022/09/03 08:39:08;;;;;;;1.90;1.20;;;19.60;99.90;;;;;;5025490;28;20054;-62
2022/09/03 08:41:52;;;;;;;2.78;1.35;;;19.60;99.90;;;;;;5026144;28;20042;-62
2022/09/03 08:44:18;;;;;;;3.05;1.20;;;19.50;99.90;;;;;;5026552;28;20053;-61
2022/09/03 08:47:11;;;;;;;3.45;1.27;;;19.80;99.90;;;;;;5024825;28;20046;-65
2022/09/03 08:49:55;;;;;;;3.25;1.40;;;19.90;99.90;;;;;;5026384;28;20037;-64
2022/09/03 08:52:45;;;;;;;2.75;1.23;;;20.00;99.90;;;;;;5025253;28;20124;-66
2022/09/03 08:55:30;;;;;;;3.65;1.20;;;20.10;99.90;;;;;;5026433;28;20350;-65
2022/09/03 08:58:13;;;;;;;4.68;1.42;;;20.70;99.90;;;;;;5026280;28;20049;-65
2022/09/03 09:01:02;;;;;;;5.60;1.48;;;21.30;99.90;;;;;;5025790;28;20113;-59
2022/09/03 09:03:33;;;;;;;2.13;1.15;;;21.70;99.90;;;;;;5026661;28;20120;-66
2022/09/03 09:06:17;;;;;;;3.70;1.30;;;22.00;99.90;;;;;;5021410;28;20350;-66
2022/09/03 09:09:00;;;;;;;5.20;1.30;;;22.30;99.90;;;;;;5006119;28;20397;-65
2022/09/03 09:11:34;;;;;;;2.60;1.15;;;22.50;99.90;;;;;;5005780;28;20093;-65
2022/09/03 09:14:09;;;;;;;3.55;1.02;;;22.60;99.90;;;;;;5006474;28;20042;-66
2022/09/03 09:16:57;;;;;;;7.00;1.30;;;22.80;99.90;;;;;;5004483;28;20076;-63
2022/09/03 09:19:49;;;;;;;8.07;1.30;;;22.90;99.90;;;;;;5006186;28;20052;-66
2022/09/03 09:22:43;;;;;;;4.88;1.30;;;23.00;99.90;;;;;;5005447;28;20401;-66
2022/09/03 09:25:23;;;;;;;3.58;1.30;;;23.00;99.90;;;;;;4995297;28;20107;-67
2022/09/03 09:28:12;;;;;;;3.70;1.20;;;22.70;99.90;;;;;;5006009;28;20404;-65
2022/09/03 09:30:39;;;;;;;2.35;1.20;;;23.50;99.90;;;;;;5005730;28;20484;-66
2022/09/03 09:33:06;;;;;;;3.50;1.20;;;23.60;99.90;;;;;;5005784;28;20042;-66
2022/09/03 09:35:31;;;;;;;3.97;1.00;;;23.70;99.90;;;;;;5005235;28;20512;-65
2022/09/03 09:37:59;;;;;;;3.53;0.90;;;23.50;99.90;;;;;;5005646;28;20046;-66
2022/09/03 09:40:47;;;;;;;5.63;1.23;;;23.60;99.90;;;;;;5005431;28;20054;-65
2022/09/03 09:43:20;;;;;;;3.45;1.00;;;23.80;99.90;;;;;;5003571;28;20136;-66
2022/09/03 09:45:51;;;;;;;2.25;1.20;;;24.00;99.90;;;;;;5005534;28;20404;-66
2022/09/03 09:48:30;;;;;;;2.70;1.30;;;23.70;99.90;;;;;;5005819;28;20109;-66
2022/09/03 09:51:17;;;;;;;5.68;1.48;;;23.90;99.90;;;;;;5003498;28;20057;-56
2022/09/03 09:53:43;;;;;;;3.00;1.20;;;24.10;99.90;;;;;;5003634;28;20048;-65
2022/09/03 09:56:21;;;;;;;2.47;1.10;;;24.10;99.90;;;;;;5004612;28;20049;-67
2022/09/03 09:58:47;;;;;;;4.15;1.30;;;24.20;99.90;;;;;;5005400;28;20136;-64
2022/09/03 10:01:24;;;;;;;3.28;1.90;;;24.10;99.90;;;;;;5005297;28;20045;-63
2022/09/03 10:03:55;;;;;;;4.45;1.10;;;24.30;99.90;;;;;;5004514;28;20050;-65
2022/09/03 10:09:17;;;;;;;4.82;1.05;;;24.40;99.90;;;;;;5006565;28;20045;-64
2022/09/03 10:11:57;;;;;;;2.17;1.15;;;24.60;99.90;;;;;;5004653;28;20046;-63
2022/09/03 10:14:34;;;;;;;9.02;1.70;;;24.20;99.90;;;;;;5004941;28;20077;-63
2022/09/03 10:17:21;;;;;;;2.65;0.98;;;24.40;99.90;;;;;;5005105;28;20046;-64
2022/09/03 10:23:02;;;;;;;4.20;1.10;;;24.30;99.90;;;;;;5004439;28;20061;-63
2022/09/03 10:25:46;;;;;;;2.20;1.05;;;24.70;99.90;;;;;;5004942;28;20037;-63
2022/09/03 10:28:12;;;;;;;2.72;1.05;;;24.40;99.90;;;;;;5003507;28;20054;-63
2022/09/03 10:31:05;;;;;;;6.68;1.10;;;24.40;99.90;;;;;;5004930;28;20852;-65
2022/09/03 10:34:00;;;;;;;4.07;1.10;;;24.60;99.90;;;;;;4983729;28;20050;-63
2022/09/03 10:36:55;;;;;;;5.53;1.27;;;24.80;99.90;;;;;;4998228;28;20060;-63
2022/09/03 10:39:34;;;;;;;4.32;0.90;;;25.00;99.60;;;;;;5002914;28;20153;-63
2022/09/03 10:42:36;;;;;;;3.80;1.00;;;25.40;99.50;;;;;;5003511;28;20068;-65
2022/09/03 10:45:15;;;;;;;3.63;1.30;;;25.60;99.20;;;;;;5004755;28;20054;-63
2022/09/03 10:47:53;;;;;;;4.72;1.10;;;25.50;98.80;;;;;;5004101;28;20046;-60
2022/09/03 10:50:25;;;;;;;5.72;0.98;;;25.60;98.90;;;;;;5003911;28;20050;-60
2022/09/03 10:53:00;;;;;;;4.13;1.30;;;25.90;98.60;;;;;;5004016;28;20068;-60
2022/09/03 10:55:31;;;;;;;5.43;1.30;;;25.90;98.30;;;;;;5003902;28;20042;-60
2022/09/03 10:58:26;;;;;;;2.30;1.00;;;25.60;98.10;;;;;;5003869;28;20057;-60
2022/09/03 11:01:00;;;;;;;3.58;0.98;;;24.80;97.90;;;;;;5004346;28;20085;-60
2022/09/03 11:04:06;;;;;;;4.55;1.00;;;25.70;98.30;;;;;;5003914;28;20045;-60
2022/09/03 11:06:46;;;;;;;2.65;1.13;;;25.70;97.80;;;;;;5010472;28;20041;-60
2022/09/03 11:09:28;;;;;;;1.83;0.90;;;25.90;97.80;;;;;;5006312;28;20046;-60
2022/09/03 11:12:11;;;;;;;2.75;0.95;;;25.80;97.30;;;;;;5003946;28;20046;-60
2022/09/03 11:14:50;;;;;;;5.43;1.13;;;25.90;97.70;;;;;;5003055;28;20069;-60
2022/09/03 11:17:26;;;;;;;3.72;1.13;;;26.00;98.00;;;;;;5003425;28;20056;-59
2022/09/03 11:20:17;;;;;;;4.57;1.20;;;26.20;97.30;;;;;;5018585;28;20046;-60
2022/09/03 11:22:45;;;;;;;2.15;0.80;;;26.30;97.70;;;;;;5003015;28;20049;-60
2022/09/03 11:25:13;;;;;;;2.63;0.98;;;25.60;97.10;;;;;;5003637;28;20042;-57
2022/09/03 11:27:52;;;;;;;4.82;0.90;;;25.50;97.50;;;;;;5002177;28;20054;-60
2022/09/03 11:30:27;;;;;;;4.65;0.98;;;26.10;97.80;;;;;;5003208;28;20378;-57
2022/09/03 11:32:59;;;;;;;2.47;0.85;;;26.10;97.40;;;;;;5018216;28;20852;-60
2022/09/03 11:35:36;;;;;;;3.25;0.95;;;25.90;97.40;;;;;;5002408;28;20045;-60
2022/09/03 11:38:26;;;;;;;1.67;0.77;;;25.90;97.60;;;;;;5003643;28;20054;-61
2022/09/03 11:40:58;;;;;;;2.67;1.10;;;26.10;96.90;;;;;;5001067;28;20129;-60
2022/09/03 11:43:23;;;;;;;1.73;0.88;;;26.50;97.50;;;;;;5003077;28;20129;-60
2022/09/03 11:46:19;;;;;;;2.05;1.00;;;26.40;97.60;;;;;;5002705;28;20124;-60
2022/09/03 11:48:54;;;;;;;1.95;0.70;;;26.40;97.50;;;;;;5003042;28;20042;-60
2022/09/03 11:51:34;;;;;;;2.35;0.90;;;26.40;97.00;;;;;;5001881;28;20073;-60
2022/09/03 11:54:15;;;;;;;4.32;1.10;;;26.40;96.40;;;;;;5003626;28;20129;-60
2022/09/03 11:56:41;;;;;;;3.42;0.80;;;26.00;96.30;;;;;;5003073;28;20116;-60
2022/09/03 11:59:13;;;;;;;3.20;1.05;;;26.40;96.90;;;;;;5002943;28;20622;-61
2022/09/03 12:02:04;;;;;;;7.30;1.15;;;26.30;96.20;;;;;;5002916;28;20046;-60
2022/09/03 12:04:53;;;;;;;1.40;0.98;;;26.10;96.30;;;;;;5015364;28;20049;-60
2022/09/03 12:07:24;;;;;;;2.20;1.02;;;26.40;96.70;;;;;;5009611;28;20409;-60
2022/09/03 12:10:25;;;;;;;3.40;1.10;;;26.30;95.80;;;;;;5021514;28;20045;-60
2022/09/03 12:12:56;;;;;;;1.63;0.93;;;26.50;96.70;;;;;;4989450;28;20085;-60
2022/09/03 12:15:58;;;;;;;2.72;0.98;;;26.20;97.10;;;;;;5025065;28;20497;-60
2022/09/03 12:18:32;;;;;;;5.45;1.10;;;26.50;96.20;;;;;;5026354;28;20496;-60
2022/09/03 12:20:59;;;;;;;;;;;26.40;96.20;;;;;;5026084;28;20126;-60
2022/09/03 12:23:33;;;;;;;4.10;0.98;;;26.30;96.00;;;;;;5026314;28;19921;-61
2022/09/03 12:26:22;;;;;;;4.00;1.00;;;26.30;96.20;;;;;;5026378;28;20404;-60
2022/09/03 12:28:54;;;;;;;1.65;0.80;;;26.40;96.30;;;;;;5025849;28;20519;-61
2022/09/03 12:31:28;;;;;;;2.00;0.80;;;26.50;96.90;;;;;;5025838;28;20033;-61
2022/09/03 12:34:24;;;;;;;3.17;1.08;;;26.40;96.90;;;;;;5025844;28;20049;-60
2022/09/03 12:36:52;;;;;;;3.58;0.95;;;26.40;97.50;;;;;;5012313;28;20104;-60
2022/09/03 12:39:23;;;;;;;6.38;1.20;;;26.20;96.70;;;;;;5025524;28;20359;-62
2022/09/03 12:42:06;;;;;;;3.03;0.80;;;26.20;97.60;;;;;;5025909;28;20081;-61
2022/09/03 12:44:41;;;;;;;2.13;1.02;;;26.20;96.60;;;;;;5025995;28;20060;-61
2022/09/03 12:47:11;;;;;;;2.90;0.80;;;26.50;96.00;;;;;;5025412;28;20053;-61
2022/09/03 12:49:42;;;;;;;3.50;1.00;;;26.60;97.10;;;;;;5023931;28;20052;-62
2022/09/03 12:52:22;;;;;;;3.70;0.90;;;26.60;96.40;;;;;;5023529;28;20045;-62
2022/09/03 12:54:55;;;;;;;2.50;1.00;;;26.50;96.90;;;;;;5025181;28;20052;-61
2022/09/03 12:57:42;;;;;;;2.78;1.17;;;25.90;95.60;;;;;;5025663;28;20834;-60
2022/09/03 13:00:13;;;;;;;3.60;0.88;;;26.60;96.10;;;;;;5025192;28;20447;-61
2022/09/03 13:02:55;;;;;;;3.55;1.08;;;26.30;95.80;;;;;;5025407;28;20473;-63
2022/09/03 13:05:43;;;;;;;4.97;0.98;;;26.10;95.50;;;;;;5021188;28;20033;-63
2022/09/03 13:08:17;;;;;;;1.73;0.90;;;26.00;95.50;;;;;;5014067;28;20089;-63
2022/09/03 13:10:43;;;;;;;;;;;26.30;96.40;;;;;;5005281;28;20506;-63
2022/09/03 13:13:23;;;;;;;2.00;1.08;;;26.30;95.50;;;;;;5004273;28;19967;-63
2022/09/03 13:16:26;;;;;;;9.13;1.80;;;26.00;95.60;;;;;;5005581;28;20045;-62
2022/09/03 13:19:07;;;;;;;5.50;1.23;;;26.20;95.60;;;;;;4992462;28;20175;-62
2022/09/03 13:22:07;;;;;;;6.03;1.45;;;26.40;96.40;;;;;;5004328;28;20536;-62
2022/09/03 13:24:39;;;;;;;2.63;1.17;;;26.70;96.50;;;;;;4985703;28;20068;-63
2022/09/03 13:27:31;;;;;;;4.60;1.20;;;26.60;96.00;;;;;;5005344;28;20050;-63
2022/09/03 13:30:16;;;;;;;2.58;0.90;;;26.60;96.10;;;;;;5003908;28;20061;-62
2022/09/03 13:33:04;;;;;;;4.70;1.20;;;26.90;95.80;;;;;;5004855;28;20056;-61